sensor_id;sensor_type;location;lat;lon;timestamp;pressure;altitude;pressure_sealevel;temperature
56286;BMP180;42191;47.562;9.686;2023-08-08T00:02:17;97154.00;;;16.90
56286;BMP180;42191;47.562;9.686;2023-08-08T00:04:43;97152.00;;;16.80
56286;BMP180;42191;47.562;9.686;2023-08-08T00:07:10;97167.00;;;16.80
56286;BMP180;42191;47.562;9.686;2023-08-08T00:09:36;97159.00;;;16.80
56286;BMP180;42191;47.562;9.686;2023-08-08T00:12:03;97152.00;;;16.80
56286;BMP180;42191;47.562;9.686;2023-08-08T00:14:30;97150.00;;;16.70
56286;BMP180;42191;47.562;9.686;2023-08-08T00:16:56;97158.00;;;16.70
56286;BMP180;42191;47.562;9.686;2023-08-08T00:19:22;97157.00;;;16.70
56286;BMP180;42191;47.562;9.686;2023-08-08T00:21:48;97162.00;;;16.60
56286;BMP180;42191;47.562;9.686;2023-08-08T00:24:14;97144.00;;;16.60
56286;BMP180;42191;47.562;9.686;2023-08-08T00:26:40;97145.00;;;16.60
56286;BMP180;42191;47.562;9.686;2023-08-08T00:29:06;97139.00;;;16.60
56286;BMP180;42191;47.562;9.686;2023-08-08T00:31:32;97134.00;;;16.60
56286;BMP180;42191;47.562;9.686;2023-08-08T00:33:58;97130.00;;;16.50
56286;BMP180;42191;47.562;9.686;2023-08-08T00:36:25;97147.00;;;16.50
56286;BMP180;42191;47.562;9.686;2023-08-08T00:38:51;97135.00;;;16.50
56286;BMP180;42191;47.562;9.686;2023-08-08T00:41:17;97131.00;;;16.50
56286;BMP180;42191;47.562;9.686;2023-08-08T00:43:43;97133.00;;;16.50
56286;BMP180;42191;47.562;9.686;2023-08-08T00:46:10;97132.00;;;16.50
56286;BMP180;42191;47.562;9.686;2023-08-08T00:48:36;97131.00;;;16.50
56286;BMP180;42191;47.562;9.686;2023-08-08T00:51:02;97134.00;;;16.50
56286;BMP180;42191;47.562;9.686;2023-08-08T00:53:30;97132.00;;;16.50
56286;BMP180;42191;47.562;9.686;2023-08-08T00:55:59;97136.00;;;16.50
56286;BMP180;42191;47.562;9.686;2023-08-08T00:58:26;97135.00;;;16.50
56286;BMP180;42191;47.562;9.686;2023-08-08T01:00:54;97126.00;;;16.50
56286;BMP180;42191;47.562;9.686;2023-08-08T01:03:22;97129.00;;;16.50
56286;BMP180;42191;47.562;9.686;2023-08-08T01:08:45;97124.00;;;16.50
56286;BMP180;42191;47.562;9.686;2023-08-08T01:11:14;97125.00;;;16.50
56286;BMP180;42191;47.562;9.686;2023-08-08T01:13:41;97127.00;;;16.50
56286;BMP180;42191;47.562;9.686;2023-08-08T01:16:09;97129.00;;;16.50
56286;BMP180;42191;47.562;9.686;2023-08-08T01:18:37;97129.00;;;16.50
56286;BMP180;42191;47.562;9.686;2023-08-08T01:21:04;97124.00;;;16.50
56286;BMP180;42191;47.562;9.686;2023-08-08T01:26:06;97123.00;;;16.50
56286;BMP180;42191;47.562;9.686;2023-08-08T01:28:34;97115.00;;;16.50
56286;BMP180;42191;47.562;9.686;2023-08-08T01:31:00;97124.00;;;16.50
56286;BMP180;42191;47.562;9.686;2023-08-08T01:33:26;97119.00;;;16.40
56286;BMP180;42191;47.562;9.686;2023-08-08T01:36:00;97118.00;;;16.40
56286;BMP180;42191;47.562;9.686;2023-08-08T01:38:38;97127.00;;;16.40
56286;BMP180;42191;47.562;9.686;2023-08-08T01:41:07;97115.00;;;16.30
56286;BMP180;42191;47.562;9.686;2023-08-08T01:43:34;97113.00;;;16.30
56286;BMP180;42191;47.562;9.686;2023-08-08T01:46:01;97110.00;;;16.20
56286;BMP180;42191;47.562;9.686;2023-08-08T01:48:29;97114.00;;;16.20
56286;BMP180;42191;47.562;9.686;2023-08-08T01:50:55;97117.00;;;16.10
56286;BMP180;42191;47.562;9.686;2023-08-08T01:53:21;97124.00;;;16.10
56286;BMP180;42191;47.562;9.686;2023-08-08T01:55:47;97115.00;;;16.00
56286;BMP180;42191;47.562;9.686;2023-08-08T01:58:14;97115.00;;;16.00
56286;BMP180;42191;47.562;9.686;2023-08-08T02:00:40;97116.00;;;15.90
56286;BMP180;42191;47.562;9.686;2023-08-08T02:03:11;97114.00;;;15.90
56286;BMP180;42191;47.562;9.686;2023-08-08T02:05:37;97117.00;;;15.90
56286;BMP180;42191;47.562;9.686;2023-08-08T02:08:03;97115.00;;;15.80
56286;BMP180;42191;47.562;9.686;2023-08-08T02:10:30;97120.00;;;15.80
56286;BMP180;42191;47.562;9.686;2023-08-08T02:12:56;97108.00;;;15.80
56286;BMP180;42191;47.562;9.686;2023-08-08T02:15:22;97105.00;;;15.70
56286;BMP180;42191;47.562;9.686;2023-08-08T02:17:50;97110.00;;;15.70
56286;BMP180;42191;47.562;9.686;2023-08-08T02:20:17;97112.00;;;15.70
56286;BMP180;42191;47.562;9.686;2023-08-08T02:22:44;97106.00;;;15.70
56286;BMP180;42191;47.562;9.686;2023-08-08T02:25:10;97105.00;;;15.70
56286;BMP180;42191;47.562;9.686;2023-08-08T02:27:36;97094.00;;;15.60
56286;BMP180;42191;47.562;9.686;2023-08-08T02:30:03;97098.00;;;15.60
56286;BMP180;42191;47.562;9.686;2023-08-08T02:32:29;97105.00;;;15.60
56286;BMP180;42191;47.562;9.686;2023-08-08T02:34:55;97101.00;;;15.60
56286;BMP180;42191;47.562;9.686;2023-08-08T02:37:21;97099.00;;;15.60
56286;BMP180;42191;47.562;9.686;2023-08-08T02:39:48;97100.00;;;15.60
56286;BMP180;42191;47.562;9.686;2023-08-08T02:42:14;97107.00;;;15.50
56286;BMP180;42191;47.562;9.686;2023-08-08T02:44:40;97098.00;;;15.50
56286;BMP180;42191;47.562;9.686;2023-08-08T02:47:06;97093.00;;;15.50
56286;BMP180;42191;47.562;9.686;2023-08-08T02:49:32;97093.00;;;15.50
56286;BMP180;42191;47.562;9.686;2023-08-08T02:52:00;97093.00;;;15.50
56286;BMP180;42191;47.562;9.686;2023-08-08T02:54:26;97096.00;;;15.50
56286;BMP180;42191;47.562;9.686;2023-08-08T02:56:52;97092.00;;;15.50
56286;BMP180;42191;47.562;9.686;2023-08-08T02:59:18;97097.00;;;15.50
56286;BMP180;42191;47.562;9.686;2023-08-08T03:01:45;97093.00;;;15.50
56286;BMP180;42191;47.562;9.686;2023-08-08T03:04:11;97106.00;;;15.50
56286;BMP180;42191;47.562;9.686;2023-08-08T03:06:37;97107.00;;;15.50
56286;BMP180;42191;47.562;9.686;2023-08-08T03:09:03;97113.00;;;15.50
56286;BMP180;42191;47.562;9.686;2023-08-08T03:11:29;97110.00;;;15.50
56286;BMP180;42191;47.562;9.686;2023-08-08T03:13:55;97103.00;;;15.40
56286;BMP180;42191;47.562;9.686;2023-08-08T03:16:22;97103.00;;;15.40
56286;BMP180;42191;47.562;9.686;2023-08-08T03:18:48;97098.00;;;15.40
56286;BMP180;42191;47.562;9.686;2023-08-08T03:21:14;97102.00;;;15.40
56286;BMP180;42191;47.562;9.686;2023-08-08T03:23:40;97113.00;;;15.40
56286;BMP180;42191;47.562;9.686;2023-08-08T03:26:06;97110.00;;;15.30
56286;BMP180;42191;47.562;9.686;2023-08-08T03:28:32;97108.00;;;15.30
56286;BMP180;42191;47.562;9.686;2023-08-08T03:30:59;97105.00;;;15.30
56286;BMP180;42191;47.562;9.686;2023-08-08T03:33:25;97107.00;;;15.30
56286;BMP180;42191;47.562;9.686;2023-08-08T03:35:51;97112.00;;;15.20
56286;BMP180;42191;47.562;9.686;2023-08-08T03:38:17;97113.00;;;15.20
56286;BMP180;42191;47.562;9.686;2023-08-08T03:40:43;97111.00;;;15.20
56286;BMP180;42191;47.562;9.686;2023-08-08T03:43:09;97103.00;;;15.20
56286;BMP180;42191;47.562;9.686;2023-08-08T03:45:36;97104.00;;;15.10
56286;BMP180;42191;47.562;9.686;2023-08-08T03:48:02;97094.00;;;15.10
56286;BMP180;42191;47.562;9.686;2023-08-08T03:50:28;97101.00;;;15.10
56286;BMP180;42191;47.562;9.686;2023-08-08T03:52:54;97098.00;;;15.10
56286;BMP180;42191;47.562;9.686;2023-08-08T03:55:20;97086.00;;;15.10
56286;BMP180;42191;47.562;9.686;2023-08-08T03:57:47;97097.00;;;15.10
56286;BMP180;42191;47.562;9.686;2023-08-08T04:00:13;97096.00;;;15.10
56286;BMP180;42191;47.562;9.686;2023-08-08T04:02:39;97101.00;;;15.10
56286;BMP180;42191;47.562;9.686;2023-08-08T04:05:06;97090.00;;;15.10
56286;BMP180;42191;47.562;9.686;2023-08-08T04:07:32;97097.00;;;15.10
56286;BMP180;42191;47.562;9.686;2023-08-08T04:09:58;97100.00;;;15.10
56286;BMP180;42191;47.562;9.686;2023-08-08T04:12:24;97094.00;;;15.10
56286;BMP180;42191;47.562;9.686;2023-08-08T04:14:51;97103.00;;;15.10
56286;BMP180;42191;47.562;9.686;2023-08-08T04:17:17;97103.00;;;15.20
56286;BMP180;42191;47.562;9.686;2023-08-08T04:19:43;97107.00;;;15.20
56286;BMP180;42191;47.562;9.686;2023-08-08T04:22:09;97112.00;;;15.20
56286;BMP180;42191;47.562;9.686;2023-08-08T04:24:36;97108.00;;;15.20
56286;BMP180;42191;47.562;9.686;2023-08-08T04:27:02;97113.00;;;15.20
56286;BMP180;42191;47.562;9.686;2023-08-08T04:29:29;97122.00;;;15.20
56286;BMP180;42191;47.562;9.686;2023-08-08T04:31:55;97122.00;;;15.20
56286;BMP180;42191;47.562;9.686;2023-08-08T04:34:21;97123.00;;;15.30
56286;BMP180;42191;47.562;9.686;2023-08-08T04:36:48;97113.00;;;15.30
56286;BMP180;42191;47.562;9.686;2023-08-08T04:39:14;97110.00;;;15.30
56286;BMP180;42191;47.562;9.686;2023-08-08T04:41:40;97107.00;;;15.30
56286;BMP180;42191;47.562;9.686;2023-08-08T04:44:06;97124.00;;;15.30
56286;BMP180;42191;47.562;9.686;2023-08-08T04:46:32;97119.00;;;15.40
56286;BMP180;42191;47.562;9.686;2023-08-08T04:48:58;97117.00;;;15.40
56286;BMP180;42191;47.562;9.686;2023-08-08T04:51:25;97117.00;;;15.40
56286;BMP180;42191;47.562;9.686;2023-08-08T04:53:51;97120.00;;;15.50
56286;BMP180;42191;47.562;9.686;2023-08-08T04:56:17;97117.00;;;15.50
56286;BMP180;42191;47.562;9.686;2023-08-08T04:58:43;97127.00;;;15.50
56286;BMP180;42191;47.562;9.686;2023-08-08T05:01:09;97133.00;;;15.60
56286;BMP180;42191;47.562;9.686;2023-08-08T05:03:40;97138.00;;;15.60
56286;BMP180;42191;47.562;9.686;2023-08-08T05:06:06;97136.00;;;15.70
56286;BMP180;42191;47.562;9.686;2023-08-08T05:08:32;97135.00;;;15.70
56286;BMP180;42191;47.562;9.686;2023-08-08T05:10:58;97137.00;;;15.80
56286;BMP180;42191;47.562;9.686;2023-08-08T05:13:25;97128.00;;;15.80
56286;BMP180;42191;47.562;9.686;2023-08-08T05:15:52;97132.00;;;15.90
56286;BMP180;42191;47.562;9.686;2023-08-08T05:18:19;97130.00;;;16.00
56286;BMP180;42191;47.562;9.686;2023-08-08T05:20:45;97140.00;;;16.00
56286;BMP180;42191;47.562;9.686;2023-08-08T05:23:11;97134.00;;;16.10
56286;BMP180;42191;47.562;9.686;2023-08-08T05:25:37;97137.00;;;16.10
56286;BMP180;42191;47.562;9.686;2023-08-08T05:28:04;97145.00;;;16.20
56286;BMP180;42191;47.562;9.686;2023-08-08T05:30:30;97141.00;;;16.30
56286;BMP180;42191;47.562;9.686;2023-08-08T05:32:56;97140.00;;;16.30
56286;BMP180;42191;47.562;9.686;2023-08-08T05:35:22;97147.00;;;16.40
56286;BMP180;42191;47.562;9.686;2023-08-08T05:37:49;97148.00;;;16.40
56286;BMP180;42191;47.562;9.686;2023-08-08T05:40:15;97136.00;;;16.40
56286;BMP180;42191;47.562;9.686;2023-08-08T05:42:41;97147.00;;;16.50
56286;BMP180;42191;47.562;9.686;2023-08-08T05:45:08;97144.00;;;16.50
56286;BMP180;42191;47.562;9.686;2023-08-08T05:47:34;97142.00;;;16.60
56286;BMP180;42191;47.562;9.686;2023-08-08T05:50:00;97137.00;;;16.60
56286;BMP180;42191;47.562;9.686;2023-08-08T05:52:27;97136.00;;;16.70
56286;BMP180;42191;47.562;9.686;2023-08-08T05:54:53;97134.00;;;16.70
56286;BMP180;42191;47.562;9.686;2023-08-08T05:57:19;97144.00;;;16.70
56286;BMP180;42191;47.562;9.686;2023-08-08T05:59:47;97139.00;;;16.80
56286;BMP180;42191;47.562;9.686;2023-08-08T06:02:14;97134.00;;;16.80
56286;BMP180;42191;47.562;9.686;2023-08-08T06:04:40;97134.00;;;16.80
56286;BMP180;42191;47.562;9.686;2023-08-08T06:07:06;97137.00;;;16.90
56286;BMP180;42191;47.562;9.686;2023-08-08T06:09:32;97139.00;;;16.90
56286;BMP180;42191;47.562;9.686;2023-08-08T06:11:59;97135.00;;;17.00
56286;BMP180;42191;47.562;9.686;2023-08-08T06:14:25;97134.00;;;17.00
56286;BMP180;42191;47.562;9.686;2023-08-08T06:16:51;97133.00;;;17.00
56286;BMP180;42191;47.562;9.686;2023-08-08T06:19:17;97138.00;;;17.10
56286;BMP180;42191;47.562;9.686;2023-08-08T06:21:45;97130.00;;;17.20
56286;BMP180;42191;47.562;9.686;2023-08-08T06:24:11;97135.00;;;17.20
56286;BMP180;42191;47.562;9.686;2023-08-08T06:26:38;97139.00;;;17.30
56286;BMP180;42191;47.562;9.686;2023-08-08T06:29:04;97132.00;;;17.30
56286;BMP180;42191;47.562;9.686;2023-08-08T06:31:30;97136.00;;;17.30
56286;BMP180;42191;47.562;9.686;2023-08-08T06:33:57;97144.00;;;17.40
56286;BMP180;42191;47.562;9.686;2023-08-08T06:36:23;97133.00;;;17.40
56286;BMP180;42191;47.562;9.686;2023-08-08T06:38:49;97135.00;;;17.40
56286;BMP180;42191;47.562;9.686;2023-08-08T06:41:15;97140.00;;;17.50
56286;BMP180;42191;47.562;9.686;2023-08-08T06:43:41;97135.00;;;17.50
56286;BMP180;42191;47.562;9.686;2023-08-08T06:46:07;97133.00;;;17.60
56286;BMP180;42191;47.562;9.686;2023-08-08T06:48:34;97128.00;;;17.70
56286;BMP180;42191;47.562;9.686;2023-08-08T06:51:00;97134.00;;;17.70
56286;BMP180;42191;47.562;9.686;2023-08-08T06:53:26;97122.00;;;17.80
56286;BMP180;42191;47.562;9.686;2023-08-08T06:55:53;97125.00;;;17.80
56286;BMP180;42191;47.562;9.686;2023-08-08T06:58:19;97137.00;;;17.90
56286;BMP180;42191;47.562;9.686;2023-08-08T07:00:45;97141.00;;;17.90
56286;BMP180;42191;47.562;9.686;2023-08-08T07:03:11;97145.00;;;18.00
56286;BMP180;42191;47.562;9.686;2023-08-08T07:05:37;97133.00;;;18.10
56286;BMP180;42191;47.562;9.686;2023-08-08T07:08:05;97132.00;;;18.10
56286;BMP180;42191;47.562;9.686;2023-08-08T07:10:31;97132.00;;;18.20
56286;BMP180;42191;47.562;9.686;2023-08-08T07:12:57;97121.00;;;18.30
56286;BMP180;42191;47.562;9.686;2023-08-08T07:15:24;97118.00;;;18.40
56286;BMP180;42191;47.562;9.686;2023-08-08T07:17:50;97119.00;;;18.50
56286;BMP180;42191;47.562;9.686;2023-08-08T07:20:16;97125.00;;;18.60
56286;BMP180;42191;47.562;9.686;2023-08-08T07:22:43;97110.00;;;18.70
56286;BMP180;42191;47.562;9.686;2023-08-08T07:25:10;97116.00;;;18.80
56286;BMP180;42191;47.562;9.686;2023-08-08T07:27:37;97112.00;;;18.80
56286;BMP180;42191;47.562;9.686;2023-08-08T07:30:04;97111.00;;;18.90
56286;BMP180;42191;47.562;9.686;2023-08-08T07:32:33;97113.00;;;19.00
56286;BMP180;42191;47.562;9.686;2023-08-08T07:34:59;97099.00;;;19.10
56286;BMP180;42191;47.562;9.686;2023-08-08T07:37:28;97098.00;;;19.20
56286;BMP180;42191;47.562;9.686;2023-08-08T07:39:54;97108.00;;;19.30
56286;BMP180;42191;47.562;9.686;2023-08-08T07:42:21;97096.00;;;19.30
56286;BMP180;42191;47.562;9.686;2023-08-08T07:44:47;97100.00;;;19.40
56286;BMP180;42191;47.562;9.686;2023-08-08T07:47:13;97101.00;;;19.40
56286;BMP180;42191;47.562;9.686;2023-08-08T07:49:39;97095.00;;;19.50
56286;BMP180;42191;47.562;9.686;2023-08-08T07:52:06;97089.00;;;19.60
56286;BMP180;42191;47.562;9.686;2023-08-08T07:54:33;97098.00;;;19.70
56286;BMP180;42191;47.562;9.686;2023-08-08T07:56:59;97101.00;;;19.70
56286;BMP180;42191;47.562;9.686;2023-08-08T07:59:26;97089.00;;;19.80
56286;BMP180;42191;47.562;9.686;2023-08-08T08:01:52;97087.00;;;19.80
56286;BMP180;42191;47.562;9.686;2023-08-08T08:04:18;97094.00;;;19.90
56286;BMP180;42191;47.562;9.686;2023-08-08T08:06:45;97085.00;;;19.90
56286;BMP180;42191;47.562;9.686;2023-08-08T08:09:11;97092.00;;;20.00
56286;BMP180;42191;47.562;9.686;2023-08-08T08:11:37;97078.00;;;20.00
56286;BMP180;42191;47.562;9.686;2023-08-08T08:14:03;97083.00;;;20.10
56286;BMP180;42191;47.562;9.686;2023-08-08T08:16:29;97093.00;;;20.10
56286;BMP180;42191;47.562;9.686;2023-08-08T08:18:56;97086.00;;;20.10
56286;BMP180;42191;47.562;9.686;2023-08-08T08:21:22;97090.00;;;20.20
56286;BMP180;42191;47.562;9.686;2023-08-08T08:23:48;97079.00;;;20.20
56286;BMP180;42191;47.562;9.686;2023-08-08T08:26:14;97082.00;;;20.30
56286;BMP180;42191;47.562;9.686;2023-08-08T08:28:40;97079.00;;;20.30
56286;BMP180;42191;47.562;9.686;2023-08-08T08:31:07;97068.00;;;20.40
56286;BMP180;42191;47.562;9.686;2023-08-08T08:33:34;97073.00;;;20.40
56286;BMP180;42191;47.562;9.686;2023-08-08T08:36:00;97078.00;;;20.40
56286;BMP180;42191;47.562;9.686;2023-08-08T08:38:27;97070.00;;;20.50
56286;BMP180;42191;47.562;9.686;2023-08-08T08:40:55;97067.00;;;20.50
56286;BMP180;42191;47.562;9.686;2023-08-08T08:43:22;97073.00;;;20.60
56286;BMP180;42191;47.562;9.686;2023-08-08T08:45:51;97059.00;;;20.60
56286;BMP180;42191;47.562;9.686;2023-08-08T08:48:19;97058.00;;;20.70
56286;BMP180;42191;47.562;9.686;2023-08-08T08:50:48;97069.00;;;20.70
56286;BMP180;42191;47.562;9.686;2023-08-08T08:53:15;97051.00;;;20.70
56286;BMP180;42191;47.562;9.686;2023-08-08T08:55:43;97053.00;;;20.80
56286;BMP180;42191;47.562;9.686;2023-08-08T08:58:11;97058.00;;;20.80
56286;BMP180;42191;47.562;9.686;2023-08-08T09:00:39;97056.00;;;20.90
56286;BMP180;42191;47.562;9.686;2023-08-08T09:03:06;97057.00;;;20.90
56286;BMP180;42191;47.562;9.686;2023-08-08T09:05:33;97052.00;;;21.00
56286;BMP180;42191;47.562;9.686;2023-08-08T09:08:00;97058.00;;;21.10
56286;BMP180;42191;47.562;9.686;2023-08-08T09:10:26;97052.00;;;21.10
56286;BMP180;42191;47.562;9.686;2023-08-08T09:12:53;97059.00;;;21.20
56286;BMP180;42191;47.562;9.686;2023-08-08T09:15:20;97068.00;;;21.20
56286;BMP180;42191;47.562;9.686;2023-08-08T09:17:46;97058.00;;;21.30
56286;BMP180;42191;47.562;9.686;2023-08-08T09:20:17;97063.00;;;21.30
56286;BMP180;42191;47.562;9.686;2023-08-08T09:22:43;97053.00;;;21.40
56286;BMP180;42191;47.562;9.686;2023-08-08T09:25:11;97055.00;;;21.40
56286;BMP180;42191;47.562;9.686;2023-08-08T09:27:37;97053.00;;;21.50
56286;BMP180;42191;47.562;9.686;2023-08-08T09:30:04;97049.00;;;21.60
56286;BMP180;42191;47.562;9.686;2023-08-08T09:32:31;97053.00;;;21.70
56286;BMP180;42191;47.562;9.686;2023-08-08T09:34:58;97058.00;;;21.80
56286;BMP180;42191;47.562;9.686;2023-08-08T09:37:25;97053.00;;;21.90
56286;BMP180;42191;47.562;9.686;2023-08-08T09:40:02;97049.00;;;21.90
56286;BMP180;42191;47.562;9.686;2023-08-08T09:42:34;97057.00;;;22.00
56286;BMP180;42191;47.562;9.686;2023-08-08T09:45:01;97047.00;;;22.10
56286;BMP180;42191;47.562;9.686;2023-08-08T09:47:28;97035.00;;;22.20
56286;BMP180;42191;47.562;9.686;2023-08-08T09:50:02;97045.00;;;22.20
56286;BMP180;42191;47.562;9.686;2023-08-08T09:52:30;97042.00;;;22.30
56286;BMP180;42191;47.562;9.686;2023-08-08T09:54:58;97038.00;;;22.40
56286;BMP180;42191;47.562;9.686;2023-08-08T09:57:25;97034.00;;;22.50
56286;BMP180;42191;47.562;9.686;2023-08-08T09:59:52;97042.00;;;22.60
56286;BMP180;42191;47.562;9.686;2023-08-08T10:02:18;97040.00;;;22.70
56286;BMP180;42191;47.562;9.686;2023-08-08T10:04:45;97042.00;;;22.70
56286;BMP180;42191;47.562;9.686;2023-08-08T10:07:12;97042.00;;;22.80
56286;BMP180;42191;47.562;9.686;2023-08-08T10:09:38;97025.00;;;22.90
56286;BMP180;42191;47.562;9.686;2023-08-08T10:12:08;97033.00;;;23.00
56286;BMP180;42191;47.562;9.686;2023-08-08T10:14:41;97028.00;;;23.10
56286;BMP180;42191;47.562;9.686;2023-08-08T10:17:07;97020.00;;;23.10
56286;BMP180;42191;47.562;9.686;2023-08-08T10:19:33;97032.00;;;23.20
56286;BMP180;42191;47.562;9.686;2023-08-08T10:22:04;97032.00;;;23.20
56286;BMP180;42191;47.562;9.686;2023-08-08T10:24:35;97034.00;;;23.20
56286;BMP180;42191;47.562;9.686;2023-08-08T10:27:04;97036.00;;;23.30
56286;BMP180;42191;47.562;9.686;2023-08-08T10:29:32;97036.00;;;23.30
56286;BMP180;42191;47.562;9.686;2023-08-08T10:32:06;97030.00;;;23.30
56286;BMP180;42191;47.562;9.686;2023-08-08T10:34:40;97026.00;;;23.40
56286;BMP180;42191;47.562;9.686;2023-08-08T10:37:13;97031.00;;;23.50
56286;BMP180;42191;47.562;9.686;2023-08-08T10:39:54;97029.00;;;23.60
56286;BMP180;42191;47.562;9.686;2023-08-08T10:42:24;97033.00;;;23.70
56286;BMP180;42191;47.562;9.686;2023-08-08T10:44:55;97031.00;;;23.80
56286;BMP180;42191;47.562;9.686;2023-08-08T10:47:35;97021.00;;;23.80
56286;BMP180;42191;47.562;9.686;2023-08-08T10:50:09;97026.00;;;23.90
56286;BMP180;42191;47.562;9.686;2023-08-08T10:52:53;97029.00;;;23.90
56286;BMP180;42191;47.562;9.686;2023-08-08T10:55:24;97028.00;;;23.90
56286;BMP180;42191;47.562;9.686;2023-08-08T10:57:59;97024.00;;;24.00
56286;BMP180;42191;47.562;9.686;2023-08-08T11:00:28;97032.00;;;24.00
56286;BMP180;42191;47.562;9.686;2023-08-08T11:02:55;97025.00;;;24.00
56286;BMP180;42191;47.562;9.686;2023-08-08T11:05:22;97021.00;;;24.00
56286;BMP180;42191;47.562;9.686;2023-08-08T11:07:49;97011.00;;;24.00
56286;BMP180;42191;47.562;9.686;2023-08-08T11:10:16;97007.00;;;24.10
56286;BMP180;42191;47.562;9.686;2023-08-08T11:12:51;97005.00;;;24.20
56286;BMP180;42191;47.562;9.686;2023-08-08T11:15:18;97013.00;;;24.20
56286;BMP180;42191;47.562;9.686;2023-08-08T11:17:44;97007.00;;;24.30
56286;BMP180;42191;47.562;9.686;2023-08-08T11:20:11;97006.00;;;24.30
56286;BMP180;42191;47.562;9.686;2023-08-08T11:22:37;97003.00;;;24.40
56286;BMP180;42191;47.562;9.686;2023-08-08T11:25:03;97004.00;;;24.40
56286;BMP180;42191;47.562;9.686;2023-08-08T11:27:30;96996.00;;;24.50
56286;BMP180;42191;47.562;9.686;2023-08-08T11:29:57;96989.00;;;24.50
56286;BMP180;42191;47.562;9.686;2023-08-08T11:32:27;96993.00;;;24.60
56286;BMP180;42191;47.562;9.686;2023-08-08T11:34:54;96997.00;;;24.70
56286;BMP180;42191;47.562;9.686;2023-08-08T11:37:20;96996.00;;;24.80
56286;BMP180;42191;47.562;9.686;2023-08-08T11:39:47;96999.00;;;24.90
56286;BMP180;42191;47.562;9.686;2023-08-08T11:42:13;96986.00;;;25.00
56286;BMP180;42191;47.562;9.686;2023-08-08T11:44:40;96987.00;;;25.20
56286;BMP180;42191;47.562;9.686;2023-08-08T11:47:07;96985.00;;;25.30
56286;BMP180;42191;47.562;9.686;2023-08-08T11:49:41;96976.00;;;25.40
56286;BMP180;42191;47.562;9.686;2023-08-08T11:52:08;96980.00;;;25.60
56286;BMP180;42191;47.562;9.686;2023-08-08T11:54:36;96972.00;;;25.70
56286;BMP180;42191;47.562;9.686;2023-08-08T11:57:02;96980.00;;;25.80
56286;BMP180;42191;47.562;9.686;2023-08-08T11:59:30;96984.00;;;25.90
56286;BMP180;42191;47.562;9.686;2023-08-08T12:01:56;96975.00;;;26.10
56286;BMP180;42191;47.562;9.686;2023-08-08T12:04:22;96967.00;;;26.20
56286;BMP180;42191;47.562;9.686;2023-08-08T12:06:50;96972.00;;;26.40
56286;BMP180;42191;47.562;9.686;2023-08-08T12:09:16;96974.00;;;26.50
56286;BMP180;42191;47.562;9.686;2023-08-08T12:11:42;96986.00;;;26.70
56286;BMP180;42191;47.562;9.686;2023-08-08T12:14:10;96976.00;;;26.70
56286;BMP180;42191;47.562;9.686;2023-08-08T12:16:38;96970.00;;;26.80
56286;BMP180;42191;47.562;9.686;2023-08-08T12:19:08;96976.00;;;26.90
56286;BMP180;42191;47.562;9.686;2023-08-08T12:21:37;96967.00;;;27.00
56286;BMP180;42191;47.562;9.686;2023-08-08T12:24:03;96963.00;;;27.20
56286;BMP180;42191;47.562;9.686;2023-08-08T12:26:29;96962.00;;;27.30
56286;BMP180;42191;47.562;9.686;2023-08-08T12:28:55;96970.00;;;27.40
56286;BMP180;42191;47.562;9.686;2023-08-08T12:31:21;96973.00;;;27.50
56286;BMP180;42191;47.562;9.686;2023-08-08T12:33:47;96974.00;;;27.50
56286;BMP180;42191;47.562;9.686;2023-08-08T12:36:14;96967.00;;;27.50
56286;BMP180;42191;47.562;9.686;2023-08-08T12:38:41;96977.00;;;27.50
56286;BMP180;42191;47.562;9.686;2023-08-08T12:41:07;96974.00;;;27.60
56286;BMP180;42191;47.562;9.686;2023-08-08T12:43:33;96964.00;;;27.60
56286;BMP180;42191;47.562;9.686;2023-08-08T12:46:00;96961.00;;;27.70
56286;BMP180;42191;47.562;9.686;2023-08-08T12:48:26;96970.00;;;27.80
56286;BMP180;42191;47.562;9.686;2023-08-08T12:50:52;96962.00;;;27.80
56286;BMP180;42191;47.562;9.686;2023-08-08T12:53:18;96964.00;;;27.80
56286;BMP180;42191;47.562;9.686;2023-08-08T12:55:44;96974.00;;;27.90
56286;BMP180;42191;47.562;9.686;2023-08-08T12:58:10;96972.00;;;27.90
56286;BMP180;42191;47.562;9.686;2023-08-08T13:00:37;96967.00;;;28.00
56286;BMP180;42191;47.562;9.686;2023-08-08T13:03:03;96961.00;;;28.00
56286;BMP180;42191;47.562;9.686;2023-08-08T13:05:29;96960.00;;;28.00
56286;BMP180;42191;47.562;9.686;2023-08-08T13:07:56;96960.00;;;28.00
56286;BMP180;42191;47.562;9.686;2023-08-08T13:10:22;96959.00;;;28.00
56286;BMP180;42191;47.562;9.686;2023-08-08T13:12:48;96958.00;;;28.10
56286;BMP180;42191;47.562;9.686;2023-08-08T13:15:15;96958.00;;;28.20
56286;BMP180;42191;47.562;9.686;2023-08-08T13:17:41;96956.00;;;28.20
56286;BMP180;42191;47.562;9.686;2023-08-08T13:20:07;96956.00;;;28.30
56286;BMP180;42191;47.562;9.686;2023-08-08T13:22:33;96958.00;;;28.40
56286;BMP180;42191;47.562;9.686;2023-08-08T13:25:00;96958.00;;;28.60
56286;BMP180;42191;47.562;9.686;2023-08-08T13:27:26;96956.00;;;28.90
56286;BMP180;42191;47.562;9.686;2023-08-08T13:29:52;96956.00;;;29.40
56286;BMP180;42191;47.562;9.686;2023-08-08T13:32:18;96963.00;;;30.10
56286;BMP180;42191;47.562;9.686;2023-08-08T13:34:44;96961.00;;;30.80
56286;BMP180;42191;47.562;9.686;2023-08-08T13:37:10;96962.00;;;31.40
56286;BMP180;42191;47.562;9.686;2023-08-08T13:39:36;96956.00;;;32.00
56286;BMP180;42191;47.562;9.686;2023-08-08T13:42:02;96957.00;;;32.50
56286;BMP180;42191;47.562;9.686;2023-08-08T13:44:29;96953.00;;;32.90
56286;BMP180;42191;47.562;9.686;2023-08-08T13:46:55;96963.00;;;33.30
56286;BMP180;42191;47.562;9.686;2023-08-08T13:49:21;96954.00;;;33.80
56286;BMP180;42191;47.562;9.686;2023-08-08T13:51:52;96954.00;;;34.10
56286;BMP180;42191;47.562;9.686;2023-08-08T13:54:19;96950.00;;;34.30
56286;BMP180;42191;47.562;9.686;2023-08-08T13:56:46;96945.00;;;34.20
56286;BMP180;42191;47.562;9.686;2023-08-08T13:59:12;96942.00;;;34.10
56286;BMP180;42191;47.562;9.686;2023-08-08T14:01:38;96950.00;;;34.20
56286;BMP180;42191;47.562;9.686;2023-08-08T14:04:04;96956.00;;;34.20
56286;BMP180;42191;47.562;9.686;2023-08-08T14:06:30;96946.00;;;34.30
56286;BMP180;42191;47.562;9.686;2023-08-08T14:08:57;96946.00;;;34.30
56286;BMP180;42191;47.562;9.686;2023-08-08T14:11:23;96949.00;;;34.30
56286;BMP180;42191;47.562;9.686;2023-08-08T14:13:49;96945.00;;;34.20